Date,TemperatureHighF,TemperatureAvgF,TemperatureLowF,DewpointHighF,DewpointAvgF,DewpointLowF,HumidityHigh,HumidityAvg,HumidityLow,PressureMaxIn,PressureMinIn,WindSpeedMaxMPH,WindSpeedAvgMPH,GustSpeedMaxMPH,PrecipitationSumIn
2013-1-1,76,76,75,-100,-100,-100,0,0,100,30.14,30.04,22,20,24,0.00
2013-1-2,76,76,76,-100,-100,-100,0,0,100,30.07,30.07,11,11,13,0.00
2013-1-3,82,80,78,-100,-100,-100,0,0,100,30.09,30.04,14,9,15,0.00
2013-1-4,75,74,72,-100,-100,-100,0,0,100,30.19,30.14,14,10,15,0.00
2013-1-5,75,74,73,-100,-100,-100,0,0,100,30.14,30.13,17,15,18,0.00
2013-1-6,79,63,78,-100,-100,-100,0,0,100,30.11,30.05,21,15,16,0.00
2013-1-7,78,77,76,-100,-100,-100,0,0,100,30.13,30.06,14,12,15,0.00
2013-1-8,78,77,77,-100,-100,-100,0,0,100,30.16,30.08,20,17,21,0.00
2013-1-9,78,78,78,-100,-100,-100,0,0,100,30.20,30.14,30,28,32,0.00
2013-1-10,78,77,77,-100,-100,-100,0,0,100,30.22,30.13,28,26,33,0.00
2013-1-11,78,77,77,-100,-100,-100,0,0,100,30.18,30.13,25,21,25,0.00
2013-1-12,77,77,77,-100,-100,-100,0,0,100,30.14,30.08,24,22,26,0.00
2013-1-13,77,77,76,-100,-100,-100,0,0,100,30.09,30.06,25,19,23,0.00
2013-1-14,77,76,76,-100,-100,-100,0,0,100,30.14,30.10,20,18,21,0.00
2013-1-15,78,77,76,-100,-100,-100,0,0,100,30.11,30.05,18,16,20,0.00
2013-1-16,78,78,77,-100,-100,-100,0,0,100,30.08,30.02,14,10,15,0.00
2013-1-17,78,76,76,-100,-100,-100,0,0,100,30.10,30.03,8,4,9,0.00
2013-1-18,63,63,63,-100,-100,-100,0,0,100,30.17,30.17,17,17,21,0.00
2013-1-19,69,69,69,-100,-100,-100,0,0,100,30.16,30.16,5,5,6,0.00
2013-1-21,72,71,71,-100,-100,-100,0,0,100,30.09,30.03,11,9,14,0.00
2013-1-22,68,67,67,-100,-100,-100,0,0,100,30.17,30.12,20,18,22,0.00
2013-1-23,71,70,69,-100,-100,-100,0,0,100,30.23,30.21,25,24,28,0.00
2013-1-24,70,70,69,-100,-100,-100,0,0,100,30.27,30.21,21,18,23,0.00
2013-1-25,72,70,69,-100,-100,-100,0,0,100,30.26,30.17,23,20,24,0.00
2013-1-26,71,70,68,-100,-100,-100,0,0,100,30.22,30.16,23,21,24,0.00
2013-1-28,76,76,75,-100,-100,-100,0,0,100,30.28,30.19,26,25,29,0.00
2013-1-29,76,76,76,-100,-100,-100,0,0,100,30.17,30.10,28,24,29,0.00
2013-1-30,79,77,76,-100,-100,-100,0,0,100,30.05,29.98,32,22,34,0.00
2013-1-31,67,67,67,-100,-100,-100,0,0,100,30.12,30.12,23,23,24,0.00
2013-2-1,68,65,62,-100,-100,-100,0,0,100,30.26,30.19,28,25,28,0.00
2013-2-2,71,70,66,-100,-100,-100,0,0,100,30.22,30.12,25,22,25,0.00
2013-2-3,65,65,64,-100,-100,-100,0,0,100,30.19,30.10,23,19,25,0.00
2013-2-4,70,67,64,-100,-100,-100,0,0,100,30.13,30.02,22,18,22,0.00
2013-2-5,75,75,75,-100,-100,-100,0,0,100,30.01,30.01,13,13,14,0.00
2013-2-6,73,62,71,-100,-100,-100,0,0,100,30.09,30.03,9,7,10,0.00
2013-2-7,78,76,75,-100,-100,-100,0,0,100,30.05,29.96,21,15,22,0.00
2013-2-8,75,75,75,-100,-100,-100,0,0,100,30.06,30.01,10,8,11,0.00
2013-2-9,76,72,70,-100,-100,-100,0,0,100,30.13,30.09,20,13,21,0.00
2013-2-10,75,75,75,-100,-100,-100,0,0,100,30.21,30.16,25,24,29,0.00
2013-2-11,76,76,75,-100,-100,-100,0,0,100,30.19,30.10,21,19,22,0.00
2013-2-12,79,77,76,-100,-100,-100,0,0,100,30.11,30.00,22,17,23,0.00
2013-2-13,81,77,76,-100,-100,-100,0,0,100,30.03,29.94,15,12,17,0.00
2013-2-14,77,77,77,-100,-100,-100,0,0,100,30.00,29.93,21,18,22,0.00
2013-2-16,68,68,68,-100,-100,-100,0,0,100,30.00,30.00,25,25,28,0.00
2013-2-17,55,54,53,-100,-100,-100,0,0,100,30.31,30.27,23,22,26,0.00
2013-2-18,69,64,60,-100,-100,-100,0,0,100,30.31,30.19,26,20,28,0.00
2013-2-19,77,75,73,-100,-100,-100,0,0,100,30.17,30.09,17,11,18,0.00
2013-2-20,72,71,70,-100,-100,-100,0,0,100,30.11,30.06,17,14,18,0.00
2013-2-21,76,76,75,-100,-100,-100,0,0,100,30.08,30.01,21,19,23,0.00
2013-2-22,77,77,76,-100,-100,-100,0,0,100,30.08,30.00,18,18,21,0.00
2013-2-23,80,77,76,-100,-100,-100,0,0,100,30.02,29.94,16,9,17,0.00
2013-2-24,81,78,76,-100,-100,-100,0,0,100,30.02,29.92,7,6,7,0.00
2013-2-25,80,79,78,-100,-100,-100,0,0,100,29.91,29.81,14,10,15,0.00
2013-2-26,79,67,77,-100,-100,-100,0,0,100,29.90,29.85,20,13,21,0.00
2013-2-27,74,72,71,-100,-100,-100,0,0,100,29.96,29.92,16,13,16,0.00
2013-3-2,63,63,63,-100,-100,-100,0,0,100,30.01,30.00,29,22,31,0.00
2013-3-3,60,60,60,-100,-100,-100,0,0,100,30.09,30.05,22,21,25,0.00
2013-3-4,60,59,58,-100,-100,-100,0,0,100,30.23,30.16,13,10,14,0.00
2013-3-5,73,71,69,-100,-100,-100,0,0,100,30.17,30.11,17,11,18,0.00
2013-3-6,72,69,66,-100,-100,-100,0,0,100,30.15,30.08,21,17,22,0.00
2013-3-7,59,58,58,-100,-100,-100,0,0,100,30.23,30.17,16,14,18,0.00
2013-3-8,67,66,65,-100,-100,-100,0,0,100,30.21,30.14,13,10,15,0.00
2013-3-9,71,70,68,-100,-100,-100,0,0,100,30.18,30.10,20,17,22,0.00
2013-3-10,72,71,70,-100,-100,-100,0,0,100,30.12,30.03,29,25,30,0.00
2013-3-11,76,74,73,-100,-100,-100,0,0,100,30.03,29.96,24,18,25,0.00
2013-3-12,74,74,73,-100,-100,-100,0,0,100,30.03,30.01,21,18,22,0.00
2013-3-13,66,66,65,-100,-100,-100,0,0,100,30.15,30.08,25,24,29,0.00
2013-3-14,63,52,62,-100,-100,-100,0,0,100,30.24,30.16,28,21,30,0.00
2013-3-15,66,56,62,-100,-100,-100,0,0,100,30.26,30.16,22,16,23,0.00
2013-3-16,71,70,68,-100,-100,-100,0,0,100,30.19,30.10,20,17,21,0.00
2013-3-17,74,74,73,-100,-100,-100,0,0,100,30.12,30.04,18,16,20,0.00
2013-3-18,75,75,75,-100,-100,-100,0,0,100,30.04,29.98,20,18,23,0.00
2013-3-19,71,71,71,-100,-100,-100,0,0,100,29.96,29.96,13,12,13,0.00
2013-3-20,74,72,71,-100,-100,-100,0,0,100,30.00,29.88,8,4,9,0.00
2013-3-21,68,56,67,-100,-100,-100,0,0,100,29.94,29.91,18,15,20,0.00
2013-3-22,78,77,76,-100,-100,-100,0,0,100,29.98,29.92,11,8,14,0.00
2013-3-23,80,77,74,-100,-100,-100,0,0,100,29.95,29.84,17,14,18,0.00
2013-3-24,78,77,76,-100,-100,-100,0,0,100,29.80,29.75,24,18,25,0.00
2013-3-25,71,69,67,-100,-100,-100,0,0,100,29.92,29.89,30,27,31,0.00
2013-3-26,62,61,60,-100,-100,-100,0,0,100,30.17,30.15,32,26,36,0.00
2013-3-27,58,57,55,-100,-100,-100,0,0,100,30.30,30.22,24,22,28,0.00
2013-3-28,66,64,63,-100,-100,-100,0,0,100,30.26,30.18,22,20,23,0.00
2013-3-29,71,69,67,-100,-100,-100,0,0,100,30.29,30.21,23,20,26,0.00
2013-3-30,72,71,70,-100,-100,-100,0,0,100,30.24,30.14,23,22,24,0.00
2013-3-31,75,74,73,-100,-100,-100,0,0,100,30.14,30.04,21,16,22,0.00
2013-4-1,76,75,75,-100,-100,-100,0,0,100,30.08,29.99,9,7,9,0.00
2013-4-2,74,73,73,-100,-100,-100,0,0,100,30.11,30.03,10,7,10,0.00
2013-4-3,76,76,75,-100,-100,-100,0,0,100,30.03,29.96,20,17,22,0.00
2013-4-4,81,78,76,-100,-100,-100,0,0,100,30.01,29.96,17,8,18,0.00
2013-4-5,70,70,70,-100,-100,-100,0,0,100,29.86,29.86,14,14,16,0.00
2013-4-6,67,66,65,-100,-100,-100,0,0,100,30.08,30.03,17,14,20,0.00
2013-4-7,75,75,74,-100,-100,-100,0,0,100,30.10,30.05,23,22,24,0.00
2013-4-8,76,76,75,-100,-100,-100,0,0,100,30.10,30.03,20,17,21,0.00
2013-4-9,77,76,76,-100,-100,-100,0,0,100,30.11,30.04,25,19,24,0.00
2013-4-10,78,78,77,-100,-100,-100,0,0,100,30.04,29.95,24,20,25,0.00
2013-4-11,78,78,78,-100,-100,-100,0,0,100,29.96,29.87,24,22,26,0.00
2013-4-12,81,80,79,-100,-100,-100,0,0,100,29.95,29.90,15,11,16,0.00
2013-4-13,81,80,79,-100,-100,-100,0,0,100,29.99,29.91,7,4,7,0.00
2013-4-14,81,80,79,-100,-100,-100,0,0,100,29.95,29.88,23,18,24,0.00
2013-4-15,85,70,79,-100,-100,-100,0,0,100,30.02,29.96,13,8,13,0.00
2013-4-16,81,70,80,-100,-100,-100,0,0,100,30.09,30.03,16,15,17,0.00
2013-4-17,80,80,79,-100,-100,-100,0,0,100,30.07,30.00,22,19,22,0.00
2013-4-18,80,80,79,-100,-100,-100,0,0,100,30.02,29.96,23,20,24,0.00
2013-4-19,81,80,80,-100,-100,-100,0,0,100,30.02,29.96,18,16,20,0.00
2013-4-20,81,80,78,-100,-100,-100,0,0,100,30.05,29.97,11,6,8,0.00
2013-4-21,81,69,80,-100,-100,-100,0,0,100,30.07,29.99,14,10,15,0.00
2013-4-22,83,80,79,-100,-100,-100,0,0,100,30.02,29.94,3,2,5,0.00
2013-4-23,81,79,77,-100,-100,-100,0,0,100,30.06,29.99,14,12,15,0.00
2013-4-24,79,78,78,-100,-100,-100,0,0,100,30.10,30.04,21,18,23,0.00
2013-4-25,79,78,78,-100,-100,-100,0,0,100,30.17,30.13,15,12,16,0.00
2013-4-26,78,77,76,-100,-100,-100,0,0,100,30.21,30.14,29,19,31,0.00
2013-4-27,78,68,76,-100,-100,-100,0,0,100,30.14,30.06,23,22,25,0.00
2013-4-28,79,78,78,-100,-100,-100,0,0,100,30.06,29.97,24,22,26,0.00
2013-4-29,80,78,75,-100,-100,-100,0,0,100,29.99,29.92,22,15,23,0.00
2013-4-30,85,80,79,-100,-100,-100,0,0,100,29.99,29.93,10,7,11,0.00
2013-5-1,75,75,75,-100,-100,-100,0,0,100,29.92,29.92,10,9,11,0.00
2013-5-2,72,72,72,-100,-100,-100,0,0,100,29.83,29.83,9,9,10,0.00
2013-5-3,78,78,77,-100,-100,-100,0,0,100,29.79,29.74,21,16,21,0.00
2013-5-4,76,76,76,-100,-100,-100,0,0,100,29.84,29.80,22,19,24,0.00
2013-5-5,71,62,71,-100,-100,-100,0,0,100,29.96,29.93,20,18,21,0.00
2013-5-6,75,74,73,-100,-100,-100,0,0,100,30.06,30.00,9,8,10,0.00
2013-5-7,76,76,75,-100,-100,-100,0,0,100,30.07,30.03,8,4,9,0.00
2013-5-8,76,67,76,-100,-100,-100,0,0,100,30.14,30.09,13,9,11,0.00
2013-5-9,79,78,77,-100,-100,-100,0,0,100,30.15,30.07,17,14,17,0.00
2013-5-10,82,78,80,-100,-100,-100,0,0,100,30.08,30.03,15,12,16,0.00
2013-5-11,83,82,80,-100,-100,-100,0,0,100,30.06,30.02,18,12,20,0.00
2013-5-12,83,81,79,-100,-100,-100,0,0,100,30.04,30.01,8,3,9,0.00
2013-5-13,79,66,79,-100,-100,-100,0,0,100,30.12,30.08,15,10,16,0.00
2013-5-14,78,78,77,-100,-100,-100,0,0,100,30.14,30.09,26,25,29,0.00
2013-5-15,78,77,77,-100,-100,-100,0,0,100,30.15,30.08,28,24,29,0.00
2013-5-16,78,62,77,-100,-100,-100,0,0,100,30.08,30.01,21,19,23,0.00
2013-5-17,80,75,79,-100,-100,-100,0,0,100,30.08,30.05,15,13,16,0.00
2013-5-18,81,81,80,-100,-100,-100,0,0,100,30.10,30.03,14,12,14,0.00
2013-5-19,81,80,80,-100,-100,-100,0,0,100,30.07,30.00,18,16,20,0.00
2013-5-20,83,81,80,-100,-100,-100,0,0,100,30.03,29.97,17,11,18,0.00
2013-5-21,85,83,81,-100,-100,-100,0,0,100,29.98,29.91,11,8,11,0.00
2013-5-22,82,81,80,-100,-100,-100,0,0,100,29.96,29.91,7,5,7,0.00
2013-5-23,81,67,80,-100,-100,-100,0,0,100,30.04,29.99,11,9,10,0.00
2013-5-24,81,80,79,-100,-100,-100,0,0,100,30.09,30.03,9,6,10,0.00
2013-5-25,82,82,81,-100,-100,-100,0,0,100,30.12,30.08,22,16,24,0.00
2013-5-26,82,81,80,-100,-100,-100,0,0,100,30.14,30.09,17,15,18,0.00
2013-5-27,81,79,78,-100,-100,-100,0,0,100,30.09,30.03,21,19,22,0.00
2013-5-29,76,76,76,-100,-100,-100,0,0,100,30.00,30.00,9,9,9,0.00
2013-5-30,85,83,80,-100,-100,-100,0,0,100,30.01,29.96,9,8,9,0.00
2013-5-31,82,81,81,-100,-100,-100,0,0,100,30.03,29.98,14,12,15,0.00
2013-6-1,83,82,81,-100,-100,-100,0,0,100,30.01,29.97,14,11,15,0.00
2013-6-8,83,83,82,-100,-100,-100,0,0,100,30.06,30.01,15,13,15,0.00
2013-6-9,83,83,82,-100,-100,-100,0,0,100,30.07,30.00,21,20,22,0.00
2013-6-10,83,83,82,-100,-100,-100,0,0,100,30.04,30.00,17,16,20,0.00
2013-6-11,88,83,82,-100,-100,-100,0,0,100,30.08,30.01,3,2,5,0.00
2013-6-12,82,82,82,-100,-100,-100,0,0,100,30.08,30.06,5,3,5,0.00
2013-6-13,85,84,83,-100,-100,-100,0,0,100,30.06,30.01,8,4,9,0.00
2013-6-14,83,82,81,-100,-100,-100,0,0,100,29.99,29.95,8,6,8,0.00
2013-6-15,84,83,82,-100,-100,-100,0,0,100,30.04,30.01,5,2,6,0.00
2013-6-16,84,84,84,-100,-100,-100,0,0,100,30.08,30.03,16,15,16,0.00
2013-6-17,84,84,83,-100,-100,-100,0,0,100,30.05,30.02,20,17,22,0.00
2013-6-18,85,85,85,-100,-100,-100,0,0,100,30.05,30.00,14,10,15,0.00
2013-6-19,86,62,85,-100,-100,-100,0,0,100,30.03,29.99,10,9,10,0.00
2013-6-20,85,85,84,-100,-100,-100,0,0,100,30.07,30.04,15,14,16,0.00
2013-6-22,85,84,83,-100,-100,-100,0,0,100,30.10,30.04,10,9,12,0.00
2013-6-23,84,83,82,-100,-100,-100,0,0,100,30.11,30.05,17,16,20,0.00
2013-6-24,84,83,81,-100,-100,-100,0,0,100,30.13,30.06,24,18,27,0.00
2013-6-25,84,83,83,-100,-100,-100,0,0,100,30.09,30.02,14,12,15,0.00
2013-6-26,84,83,83,-100,-100,-100,0,0,100,30.03,30.02,18,16,20,0.00
2013-6-27,84,83,83,-100,-100,-100,0,0,100,30.01,29.98,13,10,14,0.00
2013-6-28,87,87,87,-100,-100,-100,0,0,100,29.94,29.90,6,2,6,0.00
2013-6-29,83,82,82,-100,-100,-100,0,0,100,29.91,29.88,9,9,10,0.00
2013-6-30,82,81,81,-100,-100,-100,0,0,100,29.92,29.88,23,19,21,0.00
2013-7-2,82,82,81,-100,-100,-100,0,0,100,30.06,30.03,10,9,9,0.00
2013-7-17,80,79,79,-100,-100,-100,0,0,100,30.05,30.03,15,14,16,0.00
2013-7-19,84,83,83,-100,-100,-100,0,0,100,30.09,30.03,21,18,22,0.00
2013-7-20,86,84,83,-100,-100,-100,0,0,100,30.10,30.03,14,11,15,0.00
2013-7-21,85,84,84,-100,-100,-100,0,0,100,30.13,30.06,15,13,16,0.00
2013-7-22,85,84,83,-100,-100,-100,0,0,100,30.15,30.08,12,11,13,0.00
2013-7-23,87,85,84,-100,-100,-100,0,0,100,30.08,30.03,7,5,8,0.00
2013-7-24,84,83,82,-100,-100,-100,0,0,100,30.04,29.98,5,2,5,0.00
2013-7-25,83,57,82,-100,-100,-100,0,0,100,30.08,30.06,10,9,13,0.00
2013-7-26,84,83,83,-100,-100,-100,0,0,100,30.07,30.03,10,8,12,0.00
2013-7-27,85,84,83,-100,-100,-100,0,0,100,30.03,29.98,7,3,8,0.00
2013-7-28,89,87,85,-100,-100,-100,0,0,100,30.05,30.01,3,1,5,0.00
2013-7-29,86,86,85,-100,-100,-100,0,0,100,30.11,30.07,14,11,15,0.00
2013-7-30,84,84,83,-100,-100,-100,0,0,100,30.12,30.08,20,16,21,0.00
2013-7-31,85,85,84,-100,-100,-100,0,0,100,30.09,29.98,21,19,22,0.00
2013-8-1,88,86,84,-100,-100,-100,0,0,100,30.02,29.95,14,10,15,0.00
2013-8-2,85,84,84,-100,-100,-100,0,0,100,30.04,30.02,7,5,7,0.00
2013-8-3,86,84,84,-100,-100,-100,0,0,100,30.13,30.10,8,4,9,0.00
2013-8-4,87,86,85,-100,-100,-100,0,0,100,30.11,30.04,5,1,6,0.00
2013-8-5,84,84,84,-100,-100,-100,0,0,100,30.08,30.03,7,6,8,0.00
2013-8-7,86,84,82,-100,-100,-100,0,0,100,29.96,29.92,10,8,12,0.00
2013-8-8,85,85,84,-100,-100,-100,0,0,100,29.96,29.91,25,21,27,0.00
2013-8-10,85,84,83,-100,-100,-100,0,0,100,30.06,30.02,25,23,27,0.00
2013-8-11,85,85,85,-100,-100,-100,0,0,100,30.10,30.04,25,24,28,0.00
2013-8-12,85,67,84,-100,-100,-100,0,0,100,30.06,30.01,22,20,23,0.00
2013-8-13,85,80,84,-100,-100,-100,0,0,100,30.02,29.97,17,14,20,0.00
2013-8-14,84,84,83,-100,-100,-100,0,0,100,29.99,29.95,13,12,14,0.00
2013-8-15,85,70,84,-100,-100,-100,0,0,100,30.02,29.97,14,13,15,0.00
2013-8-16,85,59,85,-100,-100,-100,0,0,100,30.02,29.97,20,19,21,0.00
2013-8-17,86,85,85,-100,-100,-100,0,0,100,30.03,29.99,21,17,22,0.00
2013-8-18,85,68,84,-100,-100,-100,0,0,100,30.03,29.97,26,21,29,0.00
2013-8-19,85,37,85,-100,-100,-100,0,0,100,30.01,29.96,18,16,20,0.00
2013-8-21,85,68,84,-100,-100,-100,0,0,100,30.03,29.96,24,19,25,0.00
2013-8-22,85,84,84,-100,-100,-100,0,0,100,30.01,29.94,23,22,25,0.00
2013-8-23,86,85,83,-100,-100,-100,0,0,100,30.00,29.95,14,13,15,0.00
2013-8-24,86,86,85,-100,-100,-100,0,0,100,30.07,30.02,11,10,14,0.00
2013-8-25,85,84,83,-100,-100,-100,0,0,100,30.12,30.05,16,12,17,0.00
2013-8-26,85,82,80,-100,-100,-100,0,0,100,30.07,30.00,8,3,8,0.00
2013-8-28,83,81,79,-100,-100,-100,0,0,100,30.03,29.97,11,5,13,0.00
2013-8-29,88,73,83,-100,-100,-100,0,0,100,30.04,29.97,2,1,3,0.00
2013-8-30,85,84,83,-100,-100,-100,0,0,100,30.02,29.94,3,2,5,0.00
2013-8-31,87,85,82,-100,-100,-100,0,0,100,30.00,29.93,5,2,6,0.00
2013-9-1,84,84,83,-100,-100,-100,0,0,100,30.00,29.94,13,6,14,0.00
2013-9-2,86,84,83,-100,-100,-100,0,0,100,30.05,29.97,8,5,10,0.00
2013-9-4,87,86,85,-100,-100,-100,0,0,100,30.03,30.00,15,14,16,0.00
2013-9-5,86,85,85,-100,-100,-100,0,0,100,30.05,29.99,21,17,21,0.00
2013-9-6,86,86,85,-100,-100,-100,0,0,100,30.02,29.93,14,11,15,0.00
2013-9-7,84,84,84,-100,-100,-100,0,0,100,29.91,29.91,8,7,8,0.00
2013-9-8,85,83,81,-100,-100,-100,0,0,100,29.94,29.87,13,8,15,0.00
2013-9-9,86,70,84,-100,-100,-100,0,0,100,29.98,29.92,14,10,14,0.00
2013-9-10,85,83,83,-100,-100,-100,0,0,100,30.01,29.96,21,19,23,0.00
2013-9-11,85,84,84,-100,-100,-100,0,0,100,30.01,29.95,22,20,25,0.00
2013-9-13,86,85,84,-100,-100,-100,0,0,100,29.91,29.83,10,8,11,0.00
2013-9-14,85,84,84,-100,-100,-100,0,0,100,29.93,29.89,14,12,16,0.00
2013-9-16,81,81,81,-100,-100,-100,0,0,100,29.93,29.93,15,15,16,0.00
2013-9-19,85,83,81,-100,-100,-100,0,0,100,29.99,29.96,14,11,15,0.00
2013-9-20,83,83,82,-100,-100,-100,0,0,100,29.99,29.91,21,18,23,0.00
2013-9-21,86,68,84,-100,-100,-100,0,0,100,29.89,29.80,6,1,7,0.00
2013-9-22,86,84,82,-100,-100,-100,0,0,100,29.85,29.80,14,6,15,0.00
2013-9-23,86,67,83,-100,-100,-100,0,0,100,29.94,29.91,18,14,20,0.00
2013-9-24,84,83,83,-100,-100,-100,0,0,100,29.98,29.92,14,10,15,0.00
2013-9-25,84,83,83,-100,-100,-100,0,0,100,29.93,29.88,13,11,14,0.00
2013-9-26,84,83,83,-100,-100,-100,0,0,100,29.93,29.87,16,14,18,0.00
2013-9-27,83,61,82,-100,-100,-100,0,0,100,29.90,29.88,15,12,16,0.00
2013-9-28,87,84,81,-100,-100,-100,0,0,100,29.97,29.90,6,3,6,0.00
2013-9-29,84,84,83,-100,-100,-100,0,0,100,29.96,29.88,10,8,13,0.00
2013-9-30,85,66,83,-100,-100,-100,0,0,100,29.94,29.90,15,10,16,0.00
2013-10-2,84,83,83,-100,-100,-100,0,0,100,30.00,29.95,21,19,22,0.00
2013-10-3,85,68,84,-100,-100,-100,0,0,100,30.04,29.98,17,15,22,0.00
2013-10-4,84,84,83,-100,-100,-100,0,0,100,30.04,29.98,16,15,17,0.00
2013-10-5,83,82,81,-100,-100,-100,0,0,100,30.02,29.94,13,10,14,0.00
2013-10-6,85,65,84,-100,-100,-100,0,0,100,29.97,29.90,3,1,2,0.00
2013-10-7,83,83,82,-100,-100,-100,0,0,100,29.92,29.87,17,16,20,0.00
2013-10-8,83,82,82,-100,-100,-100,0,0,100,29.96,29.91,11,10,13,0.00
2013-10-9,81,81,81,-100,-100,-100,0,0,100,30.01,29.96,7,5,8,0.00
2013-10-10,82,81,80,-100,-100,-100,0,0,100,30.03,29.95,15,13,16,0.00
2013-10-11,83,82,81,-100,-100,-100,0,0,100,30.01,29.94,16,13,17,0.00
2013-10-12,83,82,82,-100,-100,-100,0,0,100,30.03,29.98,13,11,14,0.00
2013-10-13,83,82,81,-100,-100,-100,0,0,100,30.03,29.97,16,14,20,0.00
2013-10-14,81,80,80,-100,-100,-100,0,0,100,30.01,29.93,16,13,18,0.00
2013-10-15,80,80,79,-100,-100,-100,0,0,100,29.97,29.90,15,10,16,0.00
2013-10-16,81,81,80,-100,-100,-100,0,0,100,29.96,29.91,11,9,13,0.00
2013-10-17,81,81,80,-100,-100,-100,0,0,100,29.97,29.94,7,6,7,0.00
2013-10-18,83,82,81,-100,-100,-100,0,0,100,29.96,29.90,16,14,17,0.00
2013-10-19,82,82,82,-100,-100,-100,0,0,100,29.96,29.89,11,9,13,0.00
2013-10-20,83,64,82,-100,-100,-100,0,0,100,29.95,29.91,9,8,9,0.00
2013-10-21,85,84,83,-100,-100,-100,0,0,100,30.01,29.93,10,4,11,0.00
2013-10-22,84,83,83,-100,-100,-100,0,0,100,29.94,29.87,13,8,13,0.00
2013-10-23,82,82,82,-100,-100,-100,0,0,100,29.93,29.86,8,8,9,0.00
2013-10-24,78,78,78,-100,-100,-100,0,0,100,30.02,30.02,21,21,22,0.00
2013-10-25,78,78,77,-100,-100,-100,0,0,100,30.13,30.08,29,26,31,0.00
2013-10-26,79,78,77,-100,-100,-100,0,0,100,30.13,30.05,28,24,30,0.00
2013-10-27,79,78,77,-100,-100,-100,0,0,100,30.07,30.01,23,22,26,0.00
2013-10-28,81,80,78,-100,-100,-100,0,0,100,30.12,30.06,23,20,24,0.00
2013-10-29,80,79,78,-100,-100,-100,0,0,100,30.15,30.09,28,24,29,0.00
2013-10-30,80,80,79,-100,-100,-100,0,0,100,30.15,30.06,26,24,29,0.00
2013-10-31,81,81,81,-100,-100,-100,0,0,100,30.09,29.98,24,22,25,0.00
2013-11-1,85,83,81,-100,-100,-100,0,0,100,30.00,29.92,6,4,7,0.00
2013-11-2,80,80,80,-100,-100,-100,0,0,100,29.95,29.87,10,8,10,0.00
2013-11-3,77,75,73,-100,-100,-100,0,0,100,30.01,29.93,29,24,31,0.00
2013-11-4,79,78,76,-100,-100,-100,0,0,100,30.06,29.99,31,27,33,0.00
2013-11-5,77,77,77,-100,-100,-100,0,0,100,29.98,29.95,40,38,44,0.00
2013-11-6,81,80,79,-100,-100,-100,0,0,100,30.01,29.95,28,25,30,0.00
2013-11-7,77,77,77,-100,-100,-100,0,0,100,30.03,29.95,16,15,17,0.00
2013-11-8,79,77,76,-100,-100,-100,0,0,100,30.01,29.95,21,19,22,0.00
2013-11-9,81,80,79,-100,-100,-100,0,0,100,30.06,30.01,25,23,26,0.00
2013-11-10,80,79,79,-100,-100,-100,0,0,100,30.09,30.01,24,22,24,0.00
2013-11-11,79,78,78,-100,-100,-100,0,0,100,30.09,30.07,21,20,23,0.00
2013-11-12,78,78,78,-100,-100,-100,0,0,100,30.06,29.97,16,15,16,0.00
2013-11-13,74,28,74,-100,-100,-100,0,0,100,30.06,30.06,30,29,32,0.00
2013-11-14,75,75,75,-100,-100,-100,0,0,100,30.11,30.11,37,37,41,0.00
2013-11-15,79,79,79,-100,-100,-100,0,0,100,30.00,30.00,29,29,31,0.00
2013-11-17,80,80,80,-100,-100,-100,0,0,100,30.06,29.98,23,20,24,0.00
2013-11-18,82,60,79,-100,-100,-100,0,0,100,30.02,29.93,9,8,10,0.00
2013-11-19,77,77,77,-100,-100,-100,0,0,100,29.96,29.92,6,5,7,0.00
2013-11-20,83,81,79,-100,-100,-100,0,0,100,30.01,29.96,11,9,13,0.00
2013-11-21,81,80,80,-100,-100,-100,0,0,100,30.11,30.06,17,16,18,0.00
2013-11-22,80,30,80,-100,-100,-100,0,0,100,30.03,30.03,17,15,18,0.00
2013-11-23,81,80,80,-100,-100,-100,0,0,100,30.03,29.97,17,16,17,0.00
2013-11-24,78,78,77,-100,-100,-100,0,0,100,30.06,30.02,21,18,22,0.00
2013-11-26,81,80,80,-100,-100,-100,0,0,100,29.96,29.85,23,20,28,0.00
2013-11-27,75,74,74,-100,-100,-100,0,0,100,29.98,29.95,25,23,29,0.00
2013-11-28,64,61,60,-100,-100,-100,0,0,100,30.24,30.16,21,20,24,0.00
2013-11-29,73,72,71,-100,-100,-100,0,0,100,30.23,30.16,28,27,31,0.00
2013-11-30,73,72,71,-100,-100,-100,0,0,100,30.19,30.11,24,22,26,0.00
2013-12-1,72,72,72,-100,-100,-100,0,0,100,30.11,30.00,18,16,20,0.00
2013-12-2,74,72,72,-100,-100,-100,0,0,100,29.97,29.86,15,9,16,0.00
2013-12-3,79,78,77,-100,-100,-100,0,0,100,30.00,29.94,15,14,16,0.00
2013-12-4,80,80,79,-100,-100,-100,0,0,100,30.08,30.01,14,12,15,0.00
2013-12-5,80,79,78,-100,-100,-100,0,0,100,30.14,30.07,18,17,20,0.00
2013-12-6,80,79,78,-100,-100,-100,0,0,100,30.10,30.09,23,17,24,0.00
2013-12-7,78,78,77,-100,-100,-100,0,0,100,30.19,30.13,16,14,16,0.00
2013-12-8,80,79,78,-100,-100,-100,0,0,100,30.17,30.10,25,21,28,0.00
2013-12-9,80,79,79,-100,-100,-100,0,0,100,30.16,30.08,28,24,30,0.00
2013-12-10,80,56,80,-100,-100,-100,0,0,100,30.15,30.08,13,12,14,0.00
2013-12-11,79,54,77,-100,-100,-100,0,0,100,30.15,30.11,24,23,26,0.00
2013-12-12,75,75,75,-100,-100,-100,0,0,100,30.19,30.12,24,22,26,0.00
2013-12-13,77,77,77,-100,-100,-100,0,0,100,30.13,30.10,28,27,30,0.00
2013-12-14,80,80,79,-100,-100,-100,0,0,100,30.04,29.98,22,20,23,0.00
2013-12-15,79,43,78,-100,-100,-100,0,0,100,30.03,29.99,9,9,10,0.00
2013-12-17,71,69,68,-100,-100,-100,0,0,100,30.16,30.10,14,11,15,0.00
2013-12-18,71,57,71,-100,-100,-100,0,0,100,30.23,30.15,26,24,29,0.00
2013-12-19,74,73,72,-100,-100,-100,0,0,100,30.20,30.13,24,24,26,0.00
2013-12-20,79,50,78,-100,-100,-100,0,0,100,30.07,30.06,31,29,33,0.00
2013-12-21,79,79,79,-100,-100,-100,0,0,100,30.11,30.02,25,24,26,0.00
2013-12-22,80,80,80,-100,-100,-100,0,0,100,30.12,30.06,22,18,20,0.00
2013-12-23,82,81,79,-100,-100,-100,0,0,100,30.17,30.11,13,10,14,0.00
2013-12-24,76,73,72,-100,-100,-100,0,0,100,30.13,30.10,24,19,26,0.00
2013-12-25,72,72,72,-100,-100,-100,0,0,100,30.12,30.12,22,22,23,0.00
2013-12-26,75,56,74,-100,-100,-100,0,0,100,30.11,30.04,20,18,21,0.00
2013-12-27,74,74,74,-100,-100,-100,0,0,100,30.11,30.11,17,17,17,0.00
2013-12-28,79,79,79,-100,-100,-100,0,0,100,30.06,30.01,28,26,30,0.00
2013-12-30,73,72,72,-100,-100,-100,0,0,100,30.10,30.06,21,20,22,0.00
2013-12-31,73,73,73,-100,-100,-100,0,0,100,30.15,30.15,22,22,23,0.00
2014-1-1,80,80,79,-100,-100,-100,0,0,100,30.12,30.04,23,19,24,0.00
2014-1-2,78,78,77,-100,-100,-100,0,0,100,30.00,29.93,15,13,16,0.00